createdAt,value
2023-04-15T00:00:18.738Z,65.63
2023-04-15T00:02:51.563Z,65.76
2023-04-15T00:05:21.960Z,65.91
2023-04-15T00:07:52.060Z,65.68
2023-04-15T00:10:22.181Z,65.54
2023-04-15T00:12:52.641Z,65.92
2023-04-15T00:15:28.544Z,66.20
2023-04-15T00:17:58.761Z,66.22
2023-04-15T00:20:28.812Z,65.94
2023-04-15T00:22:59.636Z,66.12
2023-04-15T00:25:29.668Z,66.14
2023-04-15T00:28:09.763Z,66.03
2023-04-15T00:30:51.905Z,65.70
2023-04-15T00:33:22.238Z,65.49
2023-04-15T00:35:52.301Z,65.48
2023-04-15T00:38:22.529Z,65.47
2023-04-15T00:40:53.609Z,65.54
2023-04-15T00:43:23.828Z,65.48
2023-04-15T00:45:58.153Z,65.55
2023-04-15T00:48:29.344Z,65.68
2023-04-15T00:50:59.402Z,65.41
2023-04-15T00:53:29.527Z,65.25
2023-04-15T00:55:59.785Z,65.09
2023-04-15T00:58:30.986Z,64.86
2023-04-15T01:01:04.587Z,64.92
2023-04-15T01:03:35.045Z,64.93
2023-04-15T01:06:06.069Z,65.15
2023-04-15T01:08:36.467Z,65.27
2023-04-15T01:11:07.482Z,65.19
2023-04-15T01:13:39.033Z,65.10
2023-04-15T01:16:13.328Z,65.17
2023-04-15T01:18:44.224Z,65.20
2023-04-15T01:21:14.493Z,65.47
2023-04-15T01:23:44.629Z,65.54
2023-04-15T01:26:19.324Z,65.60
2023-04-15T01:28:49.591Z,65.05
2023-04-15T01:31:19.710Z,65.05
2023-04-15T01:33:49.952Z,65.05
2023-04-15T01:36:39.340Z,65.20
2023-04-15T01:39:09.554Z,65.29
2023-04-15T01:41:42.566Z,65.42
2023-04-15T01:44:14.191Z,65.54
2023-04-15T01:46:45.632Z,65.49
2023-04-15T01:49:17.176Z,65.18
2023-04-15T01:51:48.564Z,65.22
2023-04-15T01:54:19.928Z,65.25
2023-04-15T01:56:53.822Z,65.33
2023-04-15T01:59:25.934Z,65.25
2023-04-15T02:01:57.632Z,65.16
2023-04-15T02:04:32.097Z,64.90
2023-04-15T02:07:04.933Z,64.85
2023-04-15T02:09:36.406Z,64.80
2023-04-15T02:12:10.528Z,64.79
2023-04-15T02:14:41.946Z,64.96
2023-04-15T02:17:13.495Z,64.88
2023-04-15T02:19:46.932Z,64.92
2023-04-15T02:22:19.089Z,65.17
2023-04-15T02:24:51.563Z,65.19
2023-04-15T02:27:25.543Z,65.38
2023-04-15T02:29:56.961Z,65.46
2023-04-15T02:32:29.281Z,65.38
2023-04-15T02:35:06.146Z,65.54
2023-04-15T02:37:43.625Z,65.42
2023-04-15T02:40:16.471Z,65.51
2023-04-15T02:42:50.337Z,65.63
2023-04-15T02:45:26.124Z,65.72
2023-04-15T02:47:57.815Z,65.50
2023-04-15T02:50:31.824Z,65.58
2023-04-15T02:53:04.514Z,65.26
2023-04-15T02:55:36.030Z,65.37
2023-04-15T02:58:10.221Z,65.41
2023-04-15T03:00:42.028Z,65.33
2023-04-15T03:03:15.501Z,65.12
2023-04-15T03:05:47.694Z,65.27
2023-04-15T03:08:19.302Z,65.37
2023-04-15T03:10:52.520Z,65.03
2023-04-15T03:13:26.640Z,65.09
2023-04-15T03:15:59.478Z,65.43
2023-04-15T03:18:32.167Z,65.46
2023-04-15T03:21:07.531Z,65.64
2023-04-15T03:23:43.327Z,65.38
2023-04-15T03:26:27.296Z,65.34
2023-04-15T03:29:02.391Z,65.20
2023-04-15T03:31:34.144Z,65.32
2023-04-15T03:34:05.613Z,65.26
2023-04-15T03:36:37.149Z,65.12
2023-04-15T03:39:08.874Z,65.26
2023-04-15T03:41:40.176Z,64.98
2023-04-15T03:44:14.036Z,64.96
2023-04-15T03:46:45.518Z,65.14
2023-04-15T03:49:17.445Z,65.12
2023-04-15T03:51:48.916Z,65.03
2023-04-15T03:54:20.304Z,64.80
2023-04-15T03:56:51.671Z,64.75
2023-04-15T03:59:25.600Z,64.73
2023-04-15T04:01:57.216Z,64.75
2023-04-15T04:04:28.674Z,64.58
2023-04-15T04:07:00.278Z,64.71
2023-04-15T04:09:31.864Z,64.72
2023-04-15T04:12:04.417Z,64.81
2023-04-15T04:14:38.428Z,64.94
2023-04-15T04:17:09.837Z,65.04
2023-04-15T04:19:41.303Z,64.85
2023-04-15T04:22:12.699Z,64.79
2023-04-15T04:24:44.057Z,64.82
2023-04-15T04:27:15.681Z,64.95
2023-04-15T04:29:50.126Z,64.71
2023-04-15T04:32:21.990Z,64.69
2023-04-15T04:34:53.467Z,64.55
2023-04-15T04:37:24.905Z,64.63
2023-04-15T04:39:56.370Z,64.60
2023-04-15T04:42:27.902Z,64.56
2023-04-15T04:45:04.898Z,64.45
2023-04-15T04:47:36.511Z,64.40
2023-04-15T04:50:09.333Z,64.67
2023-04-15T04:52:41.333Z,64.61
2023-04-15T04:55:13.395Z,64.47
2023-04-15T04:57:45.051Z,64.56
2023-04-15T05:00:19.462Z,64.64
2023-04-15T05:02:51.084Z,64.57
2023-04-15T05:05:22.720Z,64.35
2023-04-15T05:07:54.026Z,64.53
2023-04-15T05:10:25.504Z,64.51
2023-04-15T05:12:56.931Z,64.33
2023-04-15T05:15:31.161Z,64.35
2023-04-15T05:18:02.567Z,64.25
2023-04-15T05:20:33.967Z,64.01
2023-04-15T05:23:05.442Z,64.10
2023-04-15T05:25:36.894Z,64.06
2023-04-15T05:28:09.532Z,63.94
2023-04-15T05:30:43.574Z,63.99
2023-04-15T05:33:15.039Z,63.92
2023-04-15T05:35:46.499Z,63.88
2023-04-15T05:38:18.010Z,63.76
2023-04-15T05:40:51.561Z,63.66
2023-04-15T05:43:31.578Z,63.85
2023-04-15T05:46:08.797Z,64.09
2023-04-15T05:48:45.158Z,64.01
2023-04-15T05:51:16.833Z,63.72
2023-04-15T05:53:53.459Z,63.31
2023-04-15T05:56:30.750Z,63.61
2023-04-15T05:59:14.219Z,63.42
2023-04-15T06:01:59.196Z,63.58
2023-04-15T06:04:36.599Z,63.44
2023-04-15T06:07:08.031Z,63.29
2023-04-15T06:09:40.732Z,63.21
2023-04-15T06:12:15.276Z,62.91
2023-04-15T06:14:48.937Z,62.68
2023-04-15T06:17:25.930Z,63.02
2023-04-15T06:20:01.152Z,62.83
2023-04-15T06:22:34.557Z,62.55
2023-04-15T06:25:14.926Z,62.60
2023-04-15T06:28:04.560Z,62.15
2023-04-15T06:30:38.588Z,61.79
2023-04-15T06:33:15.385Z,61.69
2023-04-15T06:35:52.120Z,61.68
2023-04-15T06:38:33.670Z,61.60
2023-04-15T06:41:08.076Z,61.43
2023-04-15T06:43:39.518Z,61.37
2023-04-15T06:46:14.415Z,61.39
2023-04-15T06:48:48.688Z,61.33
2023-04-15T06:51:20.049Z,61.20
2023-04-15T06:53:51.425Z,60.54
2023-04-15T06:56:23.545Z,60.29
2023-04-15T06:58:56.078Z,60.22
2023-04-15T07:01:27.819Z,60.24
2023-04-15T07:04:01.971Z,60.30
2023-04-15T07:06:34.053Z,59.82
2023-04-15T07:09:06.169Z,59.65
2023-04-15T07:11:37.943Z,59.50
2023-04-15T07:14:09.712Z,59.19
2023-04-15T07:16:42.288Z,59.36
2023-04-15T07:19:16.466Z,59.57
2023-04-15T07:21:48.226Z,59.10
2023-04-15T07:24:20.864Z,59.70
2023-04-15T07:26:52.463Z,59.82
2023-04-15T07:29:23.850Z,60.18
2023-04-15T07:31:56.819Z,60.55
2023-04-15T07:34:31.499Z,60.64
2023-04-15T07:37:03.960Z,60.68
2023-04-15T07:39:35.272Z,60.85
2023-04-15T07:42:08.927Z,61.18
2023-04-15T07:44:40.425Z,61.51
2023-04-15T07:47:12.045Z,61.81
2023-04-15T07:49:46.505Z,61.76
2023-04-15T07:52:17.952Z,61.82
2023-04-15T07:54:50.648Z,61.39
2023-04-15T07:57:22.105Z,61.73
2023-04-15T07:59:53.409Z,61.42
2023-04-15T08:02:25.477Z,61.28
2023-04-15T08:05:03.138Z,61.07
2023-04-15T08:07:34.777Z,61.13
2023-04-15T08:10:06.527Z,60.99
2023-04-15T08:12:37.907Z,61.13
2023-04-15T08:15:11.048Z,61.05
2023-04-15T08:17:42.575Z,60.89
2023-04-15T08:20:16.722Z,60.88
2023-04-15T08:22:52.121Z,60.56
2023-04-15T08:25:23.512Z,60.73
2023-04-15T08:27:54.813Z,60.99
2023-04-15T08:30:26.147Z,60.93
2023-04-15T08:32:59.340Z,60.94
2023-04-15T08:35:33.240Z,61.16
2023-04-15T08:38:08.252Z,60.93
2023-04-15T08:40:45.664Z,60.78
2023-04-15T08:43:27.101Z,60.48
2023-04-15T08:46:00.375Z,60.76
2023-04-15T08:48:35.269Z,60.84
2023-04-15T08:51:16.374Z,60.95
2023-04-15T08:53:49.315Z,60.81
2023-04-15T08:56:24.277Z,60.86
2023-04-15T08:58:59.262Z,60.58
2023-04-15T09:01:30.837Z,60.72
2023-04-15T09:04:03.027Z,60.65
2023-04-15T09:06:37.709Z,60.86
2023-04-15T09:09:09.186Z,60.69
2023-04-15T09:11:43.330Z,60.73
2023-04-15T09:14:18.531Z,60.26
2023-04-15T09:17:03.712Z,60.04
2023-04-15T09:19:36.645Z,59.79
2023-04-15T09:22:10.978Z,59.61
2023-04-15T09:24:43.608Z,59.36
2023-04-15T09:27:19.138Z,59.72
2023-04-15T09:29:53.802Z,60.19
2023-04-15T09:32:25.223Z,60.41
2023-04-15T09:34:56.840Z,60.45
2023-04-15T09:37:40.683Z,60.82
2023-04-15T09:40:13.095Z,60.92
2023-04-15T09:42:58.122Z,60.67
2023-04-15T09:45:30.090Z,60.92
2023-04-15T09:48:02.486Z,60.87
2023-04-15T09:50:33.802Z,61.16
2023-04-15T09:53:09.353Z,61.03
2023-04-15T09:55:41.178Z,61.10
2023-04-15T09:58:13.783Z,61.27
2023-04-15T10:00:57.075Z,61.28
2023-04-15T10:03:31.372Z,61.11
2023-04-15T10:06:03.832Z,61.49
2023-04-15T10:08:38.104Z,61.38
2023-04-15T10:11:10.423Z,61.65
2023-04-15T10:13:42.652Z,61.76
2023-04-15T10:16:18.629Z,61.86
2023-04-15T10:18:53.849Z,61.96
2023-04-15T10:21:25.562Z,62.05
2023-04-15T10:24:02.022Z,61.98
2023-04-15T10:26:34.029Z,61.58
2023-04-15T10:29:06.087Z,61.38
2023-04-15T10:31:38.784Z,61.21
2023-04-15T10:34:11.032Z,61.27
2023-04-15T10:36:42.587Z,61.30
2023-04-15T10:39:47.062Z,61.12
2023-04-15T10:42:22.779Z,60.63
2023-04-15T10:44:59.413Z,60.99
2023-04-15T10:47:31.310Z,61.23
2023-04-15T10:50:04.861Z,61.45
2023-04-15T10:52:43.728Z,61.56
2023-04-15T10:55:23.148Z,61.52
2023-04-15T10:57:58.814Z,61.40
2023-04-15T11:00:32.864Z,61.42
2023-04-15T11:03:10.464Z,61.57
2023-04-15T11:06:08.600Z,61.69
2023-04-15T11:09:06.094Z,61.97
2023-04-15T11:12:12.135Z,62.07
2023-04-15T11:14:44.497Z,62.15
2023-04-15T11:17:16.189Z,61.92
2023-04-15T11:19:48.066Z,61.72
2023-04-15T11:22:19.685Z,61.91
2023-04-15T11:24:52.140Z,61.85
2023-04-15T11:27:27.741Z,61.54
2023-04-15T11:29:59.052Z,61.71
2023-04-15T11:32:30.402Z,62.15
2023-04-15T11:35:01.693Z,62.16
2023-04-15T11:37:33.840Z,62.37
2023-04-15T11:40:06.392Z,62.43
2023-04-15T11:42:49.665Z,62.32
2023-04-15T11:45:21.573Z,62.63
2023-04-15T11:47:52.926Z,62.59
2023-04-15T11:50:26.060Z,62.76
2023-04-15T11:52:57.014Z,62.95
2023-04-15T11:55:27.639Z,63.07
2023-04-15T11:58:15.054Z,63.11
2023-04-15T12:00:50.670Z,63.03
2023-04-15T12:03:26.769Z,63.08
2023-04-15T12:06:07.386Z,62.97
2023-04-15T12:08:59.250Z,62.68
2023-04-15T12:11:40.731Z,62.44
2023-04-15T12:14:16.496Z,62.39
2023-04-15T12:16:50.419Z,62.35
2023-04-15T12:19:27.833Z,61.96
2023-04-15T12:22:05.827Z,61.92
2023-04-15T12:24:37.373Z,61.65
2023-04-15T12:27:08.828Z,61.74
2023-04-15T12:29:43.389Z,61.68
2023-04-15T12:32:15.137Z,61.98
2023-04-15T12:34:47.885Z,62.21
2023-04-15T12:37:18.449Z,62.17
2023-04-15T12:39:51.139Z,62.06
2023-04-15T12:42:25.980Z,61.97
2023-04-15T12:44:58.938Z,61.85
2023-04-15T12:47:29.245Z,62.00
2023-04-15T12:49:59.744Z,61.92
2023-04-15T12:52:30.110Z,61.31
2023-04-15T12:55:00.545Z,61.55
2023-04-15T12:57:30.639Z,61.65
2023-04-15T13:00:07.034Z,61.56
2023-04-15T13:02:37.215Z,61.47
2023-04-15T13:05:08.160Z,61.06
2023-04-15T13:07:38.392Z,61.32
2023-04-15T13:10:09.811Z,61.24
2023-04-15T13:12:39.930Z,61.22
2023-04-15T13:15:14.174Z,61.21
2023-04-15T13:17:44.483Z,60.95
2023-04-15T13:20:14.651Z,60.40
2023-04-15T13:22:44.777Z,60.44
2023-04-15T13:25:14.969Z,60.16
2023-04-15T13:27:45.052Z,59.75
2023-04-15T13:30:17.871Z,60.34
2023-04-15T13:32:49.374Z,60.28
2023-04-15T13:35:20.976Z,60.16
2023-04-15T13:37:51.269Z,59.80
2023-04-15T13:40:23.271Z,60.28
2023-04-15T13:42:54.847Z,60.37
2023-04-15T13:45:27.591Z,60.57
2023-04-15T13:47:59.095Z,60.42
2023-04-15T13:50:29.271Z,60.51
2023-04-15T13:52:59.556Z,60.35
2023-04-15T13:55:29.862Z,60.92
2023-04-15T13:58:00.161Z,61.10
2023-04-15T14:00:32.918Z,61.32
2023-04-15T14:03:03.220Z,61.39
2023-04-15T14:05:33.570Z,61.21
2023-04-15T14:08:04.160Z,61.34
2023-04-15T14:10:34.260Z,61.54
2023-04-15T14:13:04.308Z,61.54
2023-04-15T14:15:36.975Z,61.49
2023-04-15T14:18:07.215Z,61.54
2023-04-15T14:20:37.293Z,61.65
2023-04-15T14:23:07.869Z,61.94
2023-04-15T14:25:39.372Z,61.79
2023-04-15T14:28:09.506Z,61.90
2023-04-15T14:30:42.174Z,62.07
2023-04-15T14:33:12.176Z,61.81
2023-04-15T14:35:42.254Z,61.90
2023-04-15T14:38:12.434Z,61.99
2023-04-15T14:40:43.829Z,61.95
2023-04-15T14:43:13.884Z,62.17
2023-04-15T14:45:46.679Z,62.37
2023-04-15T14:48:16.834Z,62.05
2023-04-15T14:50:47.055Z,62.14
2023-04-15T14:53:17.315Z,62.31
2023-04-15T14:55:47.805Z,62.20
2023-04-15T14:58:17.918Z,62.30
2023-04-15T15:00:51.035Z,62.12
2023-04-15T15:03:21.414Z,62.31
2023-04-15T15:05:51.839Z,61.86
2023-04-15T15:08:22.064Z,61.65
2023-04-15T15:10:52.298Z,61.91
2023-04-15T15:13:22.585Z,62.25
2023-04-15T15:15:55.324Z,62.19
2023-04-15T15:18:25.870Z,62.11
2023-04-15T15:20:56.044Z,62.05
2023-04-15T15:23:26.163Z,61.74
2023-04-15T15:25:56.337Z,61.69
2023-04-15T15:28:26.434Z,61.47
2023-04-15T15:30:59.309Z,61.23
2023-04-15T15:33:30.333Z,61.32
2023-04-15T15:36:01.436Z,61.31
2023-04-15T15:38:31.623Z,61.53
2023-04-15T15:41:01.769Z,61.30
2023-04-15T15:43:31.937Z,61.41
2023-04-15T15:46:04.936Z,61.17
2023-04-15T15:48:35.156Z,61.53
2023-04-15T15:51:05.636Z,61.93
2023-04-15T15:53:36.062Z,61.78
2023-04-15T15:56:06.873Z,61.96
2023-04-15T15:58:37.015Z,62.13
2023-04-15T16:01:09.903Z,62.25
2023-04-15T16:03:40.401Z,62.08
2023-04-15T16:06:10.636Z,62.60
2023-04-15T16:08:43.726Z,62.38
2023-04-15T16:11:13.876Z,62.84
2023-04-15T16:13:43.873Z,62.38
2023-04-15T16:16:16.619Z,62.54
2023-04-15T16:18:46.835Z,62.27
2023-04-15T16:21:17.124Z,62.37
2023-04-15T16:23:47.185Z,62.73
2023-04-15T16:26:17.254Z,62.83
2023-04-15T16:28:47.407Z,63.18
2023-04-15T16:31:20.103Z,62.69
2023-04-15T16:33:50.218Z,62.76
2023-04-15T16:36:20.311Z,62.68
2023-04-15T16:38:50.545Z,62.82
2023-04-15T16:41:21.076Z,62.86
2023-04-15T16:43:51.384Z,62.84
2023-04-15T16:46:24.250Z,62.70
2023-04-15T16:48:54.540Z,62.59
2023-04-15T16:51:24.787Z,62.90
2023-04-15T16:53:58.231Z,63.00
2023-04-15T16:56:31.823Z,62.98
2023-04-15T16:59:02.373Z,62.90
2023-04-15T17:01:35.811Z,63.22
2023-04-15T17:04:06.251Z,63.29
2023-04-15T17:06:36.514Z,63.36
2023-04-15T17:09:07.107Z,63.24
2023-04-15T17:11:39.040Z,63.05
2023-04-15T17:14:10.071Z,63.11
2023-04-15T17:16:46.827Z,63.30
2023-04-15T17:19:17.070Z,63.23
2023-04-15T17:21:58.305Z,63.33
2023-04-15T17:24:28.958Z,63.28
2023-04-15T17:27:04.222Z,63.27
2023-04-15T17:29:37.754Z,63.42
2023-04-15T17:43:17.685Z,63.41
2023-04-15T17:46:09.292Z,63.74
2023-04-15T17:48:59.338Z,63.73
2023-04-15T17:51:49.314Z,63.77
2023-04-15T17:54:39.878Z,63.67
2023-04-15T17:57:30.347Z,63.91
2023-04-15T18:00:23.191Z,64.08
2023-04-15T18:03:13.386Z,64.23
2023-04-15T18:06:03.671Z,64.47
2023-04-15T18:08:54.689Z,64.54
2023-04-15T18:11:45.304Z,64.20
2023-04-15T18:14:35.352Z,64.26
2023-04-15T18:17:33.128Z,64.37
2023-04-15T18:20:20.608Z,64.46
2023-04-15T18:22:53.601Z,64.69
2023-04-15T18:25:31.966Z,64.71
2023-04-15T18:28:08.846Z,64.67
2023-04-15T18:30:42.519Z,64.73
2023-04-15T18:33:16.718Z,64.98
2023-04-15T18:36:04.228Z,64.82
2023-04-15T18:38:45.228Z,64.91
2023-04-15T18:41:18.416Z,65.14
2023-04-15T18:44:05.896Z,65.49
2023-04-15T18:46:44.363Z,65.63
2023-04-15T18:49:19.471Z,65.66
2023-04-15T18:51:52.585Z,65.54
2023-04-15T18:54:25.272Z,65.63
2023-04-15T18:57:09.352Z,65.81
2023-04-15T18:59:45.529Z,65.86
2023-04-15T19:02:17.458Z,65.93
2023-04-15T19:04:53.653Z,65.92
2023-04-15T19:07:31.143Z,65.90
2023-04-15T19:10:02.197Z,65.87
2023-04-15T19:12:40.606Z,65.88
2023-04-15T19:15:12.455Z,65.73
2023-04-15T19:17:48.967Z,65.88
2023-04-15T19:20:22.202Z,66.10
2023-04-15T19:22:58.442Z,65.75
2023-04-15T19:25:29.135Z,65.53
2023-04-15T19:28:00.133Z,65.55
2023-04-15T19:30:35.269Z,65.63
2023-04-15T19:33:21.705Z,65.62
2023-04-15T19:36:00.423Z,65.76
2023-04-15T19:38:32.264Z,65.43
2023-04-15T19:41:06.005Z,65.35
2023-04-15T19:43:37.303Z,65.48
2023-04-15T19:46:13.594Z,65.35
2023-04-15T19:48:44.027Z,65.30
2023-04-15T19:51:27.154Z,65.21
2023-04-15T19:54:01.148Z,65.23
2023-04-15T19:56:49.834Z,65.20
2023-04-15T19:59:33.591Z,64.92
2023-04-15T20:02:11.741Z,64.95
2023-04-15T20:04:57.712Z,64.93
2023-04-15T20:07:33.271Z,65.17
2023-04-15T20:10:33.255Z,65.24
2023-04-15T20:13:15.241Z,65.02
2023-04-15T20:15:48.522Z,64.91
2023-04-15T20:18:18.653Z,65.19
2023-04-15T20:20:48.912Z,65.24
2023-04-15T20:23:21.837Z,65.19
2023-04-15T20:25:52.068Z,64.80
2023-04-15T20:28:27.952Z,64.84
2023-04-15T20:30:59.501Z,64.84
2023-04-15T20:33:31.494Z,64.70
2023-04-15T20:36:04.154Z,64.94
2023-04-15T20:38:39.556Z,64.88
2023-04-15T20:41:16.550Z,64.95
2023-04-15T20:43:46.902Z,64.74
2023-04-15T20:46:21.416Z,64.66
2023-04-15T20:48:56.805Z,64.79
2023-04-15T20:51:43.550Z,64.83
2023-04-15T20:54:19.678Z,64.82
2023-04-15T20:57:01.945Z,65.09
2023-04-15T20:59:54.285Z,65.03
2023-04-15T21:02:45.154Z,65.05
2023-04-15T21:05:31.583Z,64.85
2023-04-15T21:08:24.019Z,64.84
2023-04-15T21:11:03.971Z,64.73
2023-04-15T21:13:37.540Z,64.83
2023-04-15T21:16:12.361Z,64.70
2023-04-15T21:18:50.025Z,64.77
2023-04-15T21:21:24.498Z,64.64
2023-04-15T21:24:07.856Z,64.81
2023-04-15T21:26:40.933Z,64.59
2023-04-15T21:29:18.047Z,64.81
2023-04-15T21:31:48.303Z,64.72
2023-04-15T21:34:38.475Z,64.76
2023-04-15T21:37:14.665Z,64.84
2023-04-15T21:39:55.959Z,64.80
2023-04-15T21:42:36.625Z,64.71
2023-04-15T21:45:16.736Z,64.81
2023-04-15T21:48:20.447Z,64.83
2023-04-15T21:50:52.568Z,64.64
2023-04-15T21:56:56.988Z,64.67
2023-04-15T21:59:30.602Z,64.56
2023-04-15T22:02:06.967Z,64.68
2023-04-15T22:08:12.694Z,64.54
2023-04-15T22:10:56.830Z,64.88
2023-04-15T22:13:39.887Z,64.81
2023-04-15T22:16:15.446Z,64.83
2023-04-15T22:18:50.381Z,65.02
2023-04-15T22:21:23.340Z,64.92
2023-04-15T22:24:38.762Z,65.06
2023-04-15T22:26:59.765Z,65.08
2023-04-15T22:29:33.742Z,65.06
2023-04-15T22:32:10.578Z,65.13
2023-04-15T22:34:54.603Z,64.84
2023-04-15T22:37:37.876Z,65.25
2023-04-15T22:40:11.962Z,64.93
2023-04-15T22:42:47.917Z,64.84
2023-04-15T22:45:21.501Z,64.61
2023-04-15T22:48:12.154Z,65.01
2023-04-15T22:51:10.812Z,64.62
2023-04-15T22:53:44.505Z,64.50
2023-04-15T22:56:15.894Z,64.53
2023-04-15T22:59:00.930Z,65.00
2023-04-15T23:01:37.414Z,65.06
2023-04-15T23:04:25.696Z,65.15
2023-04-15T23:07:00.601Z,64.82
2023-04-15T23:09:32.498Z,64.87
2023-04-15T23:12:05.967Z,64.78
2023-04-15T23:14:38.910Z,64.90
2023-04-15T23:17:18.782Z,65.10
2023-04-15T23:19:55.648Z,65.28
2023-04-15T23:22:32.459Z,65.20
2023-04-15T23:25:10.131Z,65.24
2023-04-15T23:27:45.997Z,65.06
2023-04-15T23:30:20.409Z,65.19
2023-04-15T23:32:57.504Z,64.87
2023-04-15T23:35:37.930Z,65.18
2023-04-15T23:38:10.809Z,65.06
2023-04-15T23:40:45.914Z,65.17
2023-04-15T23:43:18.722Z,65.41
2023-04-15T23:45:57.896Z,65.21
2023-04-15T23:48:42.465Z,65.29
2023-04-15T23:51:16.704Z,65.27
2023-04-15T23:53:54.155Z,65.02
2023-04-15T23:56:31.024Z,64.95
2023-04-15T23:59:14.436Z,64.88
